createdAt,value
2018-02-08T00:02:08.057Z,83.50
2018-02-08T00:04:35.640Z,83.50
2018-02-08T00:07:03.199Z,83.10
2018-02-08T00:09:30.769Z,83.10
2018-02-08T00:11:58.316Z,83.10
2018-02-08T00:14:25.887Z,83.10
2018-02-08T00:16:53.424Z,83.00
2018-02-08T00:19:21.824Z,83.10
2018-02-08T00:21:49.692Z,82.90
2018-02-08T00:24:17.502Z,83.00
2018-02-08T00:26:45.056Z,83.00
2018-02-08T00:29:13.432Z,83.00
2018-02-08T00:31:41.096Z,83.50
2018-02-08T00:34:09.474Z,82.10
2018-02-08T00:36:37.073Z,82.00
2018-02-08T00:39:04.671Z,81.90
2018-02-08T00:41:32.278Z,81.90
2018-02-08T00:43:59.849Z,82.20
2018-02-08T00:46:27.389Z,82.40
2018-02-08T00:48:56.073Z,82.20
2018-02-08T00:51:24.839Z,81.80
2018-02-08T00:53:52.401Z,81.50
2018-02-08T00:56:19.924Z,82.20
2018-02-08T00:58:48.263Z,82.20
2018-02-08T01:01:15.816Z,82.00
2018-02-08T01:03:43.364Z,82.10
2018-02-08T01:06:10.928Z,82.00
2018-02-08T01:08:38.527Z,82.00
2018-02-08T01:11:06.067Z,81.50
2018-02-08T01:13:33.652Z,81.90
2018-02-08T01:16:01.217Z,81.80
2018-02-08T01:18:28.776Z,81.90
2018-02-08T01:20:56.422Z,82.10
2018-02-08T01:23:25.229Z,82.20
2018-02-08T01:25:52.755Z,82.30
2018-02-08T01:28:20.331Z,82.60
2018-02-08T01:30:47.886Z,82.30
2018-02-08T01:33:15.397Z,82.20
2018-02-08T01:35:42.965Z,82.10
2018-02-08T01:38:10.520Z,82.40
2018-02-08T01:40:38.106Z,81.90
2018-02-08T01:43:05.657Z,81.80
2018-02-08T01:45:34.426Z,81.30
2018-02-08T01:48:02.014Z,81.40
2018-02-08T01:50:29.581Z,81.30
2018-02-08T01:52:57.142Z,82.00
2018-02-08T01:55:24.670Z,81.90
2018-02-08T01:57:52.204Z,81.90
2018-02-08T02:00:19.758Z,82.50
2018-02-08T02:02:47.288Z,82.50
2018-02-08T02:05:16.047Z,83.10
2018-02-08T02:07:43.580Z,83.10
2018-02-08T02:10:11.329Z,83.50
2018-02-08T02:12:38.895Z,83.30
2018-02-08T02:15:06.513Z,83.70
2018-02-08T02:17:34.017Z,83.60
2018-02-08T02:20:01.544Z,83.90
2018-02-08T02:22:29.112Z,83.90
2018-02-08T02:24:56.651Z,84.20
2018-02-08T02:27:24.172Z,84.70
2018-02-08T02:29:51.744Z,84.80
2018-02-08T02:32:19.318Z,84.80
2018-02-08T02:34:46.904Z,84.80
2018-02-08T02:37:15.270Z,84.90
2018-02-08T02:39:42.830Z,84.70
2018-02-08T02:42:11.594Z,84.70
2018-02-08T02:44:39.158Z,84.70
2018-02-08T02:47:06.753Z,84.70
2018-02-08T02:49:34.302Z,84.60
2018-02-08T02:52:02.660Z,84.80
2018-02-08T02:54:30.235Z,84.80
2018-02-08T02:56:57.853Z,84.80
2018-02-08T02:59:25.446Z,84.80
2018-02-08T03:01:53.069Z,85.00
2018-02-08T03:04:20.626Z,84.80
2018-02-08T03:06:48.177Z,84.90
2018-02-08T03:09:15.724Z,84.90
2018-02-08T03:11:44.064Z,85.50
2018-02-08T03:14:11.646Z,85.30
2018-02-08T03:16:39.250Z,85.50
2018-02-08T03:19:06.846Z,85.70
2018-02-08T03:21:34.450Z,85.90
2018-02-08T03:24:02.027Z,85.70
2018-02-08T03:26:29.652Z,86.60
2018-02-08T03:28:57.215Z,86.30
2018-02-08T03:31:26.256Z,86.60
2018-02-08T03:33:53.850Z,85.70
2018-02-08T03:36:21.384Z,85.50
2018-02-08T03:38:48.966Z,85.50
2018-02-08T03:41:16.568Z,86.40
2018-02-08T03:43:44.117Z,84.90
2018-02-08T03:46:11.684Z,84.60
2018-02-08T03:48:40.129Z,84.50
2018-02-08T03:51:07.707Z,84.20
2018-02-08T03:53:35.298Z,83.30
2018-02-08T03:56:02.923Z,83.30
2018-02-08T03:58:32.490Z,82.50
2018-02-08T04:01:00.028Z,82.40
2018-02-08T04:03:27.760Z,82.90
2018-02-08T04:05:55.366Z,82.90
2018-02-08T04:08:22.895Z,82.30
2018-02-08T04:10:50.486Z,81.60
2018-02-08T04:13:18.031Z,81.40
2018-02-08T04:15:46.742Z,81.10
2018-02-08T04:18:14.304Z,81.10
2018-02-08T04:20:43.096Z,81.60
2018-02-08T04:23:10.665Z,81.70
2018-02-08T04:25:38.238Z,81.00
2018-02-08T04:28:06.654Z,81.10
2018-02-08T04:30:34.220Z,80.60
2018-02-08T04:33:02.006Z,80.80
2018-02-08T04:35:32.418Z,80.70
2018-02-08T04:37:59.972Z,81.00
2018-02-08T04:40:40.123Z,81.10
2018-02-08T04:46:27.213Z,80.60
2018-02-08T04:48:54.952Z,80.20
2018-02-08T04:51:22.694Z,80.30
2018-02-08T04:53:50.329Z,80.50
2018-02-08T04:56:18.737Z,80.40
2018-02-08T04:58:46.251Z,80.30
2018-02-08T05:01:13.780Z,80.40
2018-02-08T05:03:41.307Z,80.10
2018-02-08T05:06:08.893Z,80.00
2018-02-08T05:08:36.371Z,79.30
2018-02-08T05:11:03.872Z,79.90
2018-02-08T05:13:32.152Z,80.30
2018-02-08T05:16:00.434Z,79.80
2018-02-08T05:18:27.967Z,79.80
2018-02-08T05:20:55.491Z,79.80
2018-02-08T05:23:23.029Z,80.20
2018-02-08T05:25:50.540Z,80.30
2018-02-08T05:28:18.049Z,79.10
2018-02-08T05:30:45.573Z,79.40
2018-02-08T05:33:13.864Z,79.20
2018-02-08T05:35:41.368Z,79.10
2018-02-08T05:38:08.897Z,79.80
2018-02-08T05:40:36.400Z,79.40
2018-02-08T05:43:03.930Z,79.40
2018-02-08T05:45:31.460Z,79.70
2018-02-08T05:47:58.964Z,79.60
2018-02-08T05:50:26.486Z,79.50
2018-02-08T05:52:54.081Z,79.90
2018-02-08T05:55:21.544Z,79.80
2018-02-08T05:57:49.048Z,80.00
2018-02-08T06:00:17.330Z,79.40
2018-02-08T06:02:44.852Z,79.40
2018-02-08T06:05:12.373Z,80.10
2018-02-08T06:07:39.910Z,79.50
2018-02-08T06:10:07.424Z,80.10
2018-02-08T06:12:34.918Z,79.80
2018-02-08T06:15:02.436Z,80.00
2018-02-08T06:17:29.964Z,79.70
2018-02-08T06:19:57.475Z,79.30
2018-02-08T06:22:24.986Z,79.80
2018-02-08T06:24:52.498Z,79.50
2018-02-08T06:27:20.768Z,79.90
2018-02-08T06:29:49.062Z,80.70
2018-02-08T06:32:17.459Z,80.60
2018-02-08T06:34:44.967Z,80.50
2018-02-08T06:37:12.488Z,80.60
2018-02-08T06:39:40.768Z,80.30
2018-02-08T06:42:08.274Z,80.10
2018-02-08T06:44:35.812Z,80.20
2018-02-08T06:47:03.335Z,80.50
2018-02-08T06:49:30.840Z,80.40
2018-02-08T06:51:58.368Z,80.70
2018-02-08T06:54:25.876Z,81.00
2018-02-08T06:56:54.157Z,81.20
2018-02-08T06:59:22.452Z,80.70
2018-02-08T07:01:49.964Z,80.60
2018-02-08T07:04:17.477Z,80.60
2018-02-08T07:06:45.168Z,80.60
2018-02-08T07:09:13.452Z,80.90
2018-02-08T07:11:40.950Z,80.80
2018-02-08T07:14:09.236Z,81.30
2018-02-08T07:16:36.748Z,81.10
2018-02-08T07:19:04.250Z,81.10
2018-02-08T07:21:31.784Z,81.80
2018-02-08T07:23:59.304Z,81.20
2018-02-08T07:26:26.810Z,81.30
2018-02-08T07:28:54.316Z,80.90
2018-02-08T07:31:21.825Z,81.10
2018-02-08T07:33:50.100Z,81.80
2018-02-08T07:36:18.432Z,81.40
2018-02-08T07:38:45.956Z,81.30
2018-02-08T07:41:13.452Z,81.20
2018-02-08T07:43:40.952Z,81.20
2018-02-08T07:46:08.464Z,81.20
2018-02-08T07:48:35.970Z,80.80
2018-02-08T07:51:03.476Z,80.80
2018-02-08T07:53:30.982Z,80.30
2018-02-08T07:55:58.489Z,80.70
2018-02-08T07:58:26.037Z,80.60
2018-02-08T08:00:53.575Z,81.00
2018-02-08T08:03:21.850Z,80.60
2018-02-08T08:05:50.132Z,80.50
2018-02-08T08:08:18.406Z,81.10
2018-02-08T08:10:46.679Z,81.50
2018-02-08T08:13:14.980Z,80.60
2018-02-08T08:15:42.506Z,80.50
2018-02-08T08:18:10.031Z,80.60
2018-02-08T08:20:37.550Z,80.90
2018-02-08T08:23:05.061Z,80.70
2018-02-08T08:25:32.564Z,80.70
2018-02-08T08:28:00.120Z,80.60
2018-02-08T08:30:27.642Z,80.50
2018-02-08T08:32:55.156Z,80.30
2018-02-08T08:35:22.682Z,80.10
2018-02-08T08:37:50.200Z,80.20
2018-02-08T08:40:17.709Z,80.60
2018-02-08T08:42:45.230Z,80.80
2018-02-08T08:45:12.744Z,80.70
2018-02-08T08:47:40.270Z,80.30
2018-02-08T08:50:08.568Z,81.00
2018-02-08T08:52:36.076Z,80.80
2018-02-08T08:55:03.613Z,80.30
2018-02-08T08:57:31.135Z,80.70
2018-02-08T08:59:59.424Z,80.80
2018-02-08T09:02:26.939Z,80.70
2018-02-08T09:04:54.461Z,81.20
2018-02-08T09:07:21.980Z,81.20
2018-02-08T09:09:50.256Z,80.60
2018-02-08T09:12:18.540Z,80.50
2018-02-08T09:14:46.852Z,79.80
2018-02-08T09:17:15.118Z,80.60
2018-02-08T09:19:42.651Z,80.60
2018-02-08T09:22:10.929Z,80.30
2018-02-08T09:24:38.438Z,80.20
2018-02-08T09:27:05.946Z,80.50
2018-02-08T09:29:34.228Z,80.10
2018-02-08T09:32:01.740Z,80.00
2018-02-08T09:34:29.256Z,80.00
2018-02-08T09:36:56.780Z,80.20
2018-02-08T09:39:25.052Z,80.20
2018-02-08T09:41:53.350Z,80.30
2018-02-08T09:44:21.634Z,80.40
2018-02-08T09:46:49.138Z,80.30
2018-02-08T09:49:16.650Z,80.80
2018-02-08T09:51:44.156Z,80.70
2018-02-08T09:54:11.668Z,80.60
2018-02-08T09:56:39.200Z,81.00
2018-02-08T09:59:06.709Z,80.70
2018-02-08T10:01:34.216Z,80.60
2018-02-08T10:04:01.737Z,80.10
2018-02-08T10:06:29.244Z,80.40
2018-02-08T10:08:57.532Z,80.20
2018-02-08T10:11:25.818Z,80.20
2018-02-08T10:13:53.331Z,80.10
2018-02-08T10:16:20.850Z,80.40
2018-02-08T10:18:48.380Z,80.30
2018-02-08T10:21:15.892Z,80.70
2018-02-08T10:23:43.408Z,79.80
2018-02-08T10:26:10.930Z,80.70
2018-02-08T10:28:38.439Z,80.60
2018-02-08T10:31:05.967Z,80.80
2018-02-08T10:33:34.255Z,80.70
2018-02-08T10:36:02.537Z,80.60
2018-02-08T10:38:30.045Z,80.60
2018-02-08T10:40:57.579Z,80.60
2018-02-08T10:43:25.095Z,80.20
2018-02-08T10:45:53.396Z,80.00
2018-02-08T10:48:20.914Z,79.90
2018-02-08T10:50:48.419Z,79.30
2018-02-08T10:53:15.933Z,79.30
2018-02-08T10:55:43.459Z,79.50
2018-02-08T10:58:11.006Z,79.20
2018-02-08T11:00:38.516Z,78.90
2018-02-08T11:03:06.811Z,79.60
2018-02-08T11:05:34.315Z,79.60
2018-02-08T11:08:01.842Z,78.70
2018-02-08T11:10:29.364Z,79.40
2018-02-08T11:12:56.906Z,78.60
2018-02-08T11:15:24.392Z,78.50
2018-02-08T11:17:51.911Z,79.10
2018-02-08T11:20:19.436Z,79.20
2018-02-08T11:22:46.972Z,78.90
2018-02-08T11:25:15.265Z,79.20
2018-02-08T11:27:42.774Z,79.20
2018-02-08T11:30:10.296Z,79.20
2018-02-08T11:32:37.839Z,79.60
2018-02-08T11:35:05.370Z,78.80
2018-02-08T11:37:32.882Z,78.80
2018-02-08T11:40:01.192Z,79.20
2018-02-08T11:42:28.701Z,79.10
2018-02-08T11:44:56.211Z,78.90
2018-02-08T11:47:23.732Z,78.80
2018-02-08T11:49:52.022Z,78.70
2018-02-08T11:52:19.532Z,78.60
2018-02-08T11:54:47.060Z,78.60
2018-02-08T11:57:14.582Z,78.40
2018-02-08T11:59:42.092Z,77.60
2018-02-08T12:02:09.620Z,77.70
2018-02-08T12:04:37.135Z,78.30
2018-02-08T12:07:04.648Z,78.30
2018-02-08T12:09:32.159Z,79.00
2018-02-08T12:11:59.692Z,77.90
2018-02-08T12:14:27.201Z,78.70
2018-02-08T12:16:54.735Z,77.90
2018-02-08T12:19:22.259Z,78.10
2018-02-08T12:21:49.795Z,77.40
2018-02-08T12:24:17.321Z,77.70
2018-02-08T12:26:44.839Z,77.60
2018-02-08T12:29:12.353Z,78.40
2018-02-08T12:31:40.685Z,78.80
2018-02-08T12:34:08.964Z,78.40
2018-02-08T12:36:36.479Z,78.30
2018-02-08T12:39:04.013Z,78.10
2018-02-08T12:41:31.519Z,77.90
2018-02-08T12:43:59.032Z,77.60
2018-02-08T12:46:26.557Z,77.80
2018-02-08T12:48:54.836Z,78.10
2018-02-08T12:51:23.120Z,77.20
2018-02-08T12:53:51.416Z,77.70
2018-02-08T12:56:18.935Z,77.70
2018-02-08T12:58:46.461Z,77.70
2018-02-08T13:01:14.002Z,78.50
2018-02-08T13:03:41.522Z,77.10
2018-02-08T13:06:09.032Z,77.40
2018-02-08T13:08:36.556Z,77.10
2018-02-08T13:11:04.061Z,76.90
2018-02-08T13:13:31.572Z,77.90
2018-02-08T13:15:59.096Z,77.70
2018-02-08T13:18:26.616Z,77.70
2018-02-08T13:20:54.126Z,76.50
2018-02-08T13:23:21.660Z,77.40
2018-02-08T13:25:49.163Z,77.00
2018-02-08T13:28:16.663Z,76.80
2018-02-08T13:30:44.189Z,77.40
2018-02-08T13:33:11.736Z,77.80
2018-02-08T13:35:39.250Z,77.60
2018-02-08T13:38:06.769Z,77.40
2018-02-08T13:40:39.987Z,77.50
2018-02-08T13:43:07.517Z,77.50
2018-02-08T13:45:35.034Z,77.10
2018-02-08T13:48:18.323Z,78.00
2018-02-08T13:51:00.826Z,77.50
2018-02-08T13:53:33.935Z,77.00
2018-02-08T13:56:22.313Z,77.40
2018-02-08T13:59:05.551Z,77.40
2018-02-08T14:01:34.635Z,77.00
2018-02-08T14:04:02.216Z,77.00
2018-02-08T14:06:29.755Z,77.10
2018-02-08T14:08:57.265Z,76.60
2018-02-08T14:11:24.872Z,76.10
2018-02-08T14:13:53.314Z,76.20
2018-02-08T14:16:20.840Z,76.20
2018-02-08T14:18:48.343Z,75.70
2018-02-08T14:21:15.885Z,76.00
2018-02-08T14:23:43.398Z,75.90
2018-02-08T14:26:11.682Z,76.90
2018-02-08T14:28:39.972Z,75.90
2018-02-08T14:31:07.475Z,75.80
2018-02-08T14:33:35.040Z,76.10
2018-02-08T14:36:03.160Z,76.30
2018-02-08T14:38:30.680Z,75.90
2018-02-08T14:40:58.211Z,76.40
2018-02-08T14:43:25.731Z,75.90
2018-02-08T14:45:54.016Z,76.30
2018-02-08T14:48:22.293Z,76.20
2018-02-08T14:50:49.817Z,76.20
2018-02-08T14:53:17.316Z,76.40
2018-02-08T14:55:44.835Z,75.50
2018-02-08T14:58:12.344Z,75.90
2018-02-08T15:00:39.864Z,75.80
2018-02-08T15:03:07.368Z,76.10
2018-02-08T15:05:34.887Z,76.20
2018-02-08T15:08:03.178Z,76.30
2018-02-08T15:10:30.675Z,76.30
2018-02-08T15:12:58.207Z,77.00
2018-02-08T15:15:25.719Z,76.80
2018-02-08T15:17:53.235Z,77.20
2018-02-08T15:20:20.755Z,76.40
2018-02-08T15:22:48.262Z,77.40
2018-02-08T15:25:15.794Z,76.70
2018-02-08T15:27:43.328Z,76.80
2018-02-08T15:30:10.827Z,76.70
2018-02-08T15:32:38.336Z,76.90
2018-02-08T15:35:05.841Z,77.10
2018-02-08T15:37:33.343Z,77.50
2018-02-08T15:40:00.859Z,77.60
2018-02-08T15:42:28.373Z,77.30
2018-02-08T15:44:55.883Z,77.50
2018-02-08T15:47:23.405Z,78.30
2018-02-08T15:49:50.927Z,77.90
2018-02-08T15:52:18.424Z,78.00
2018-02-08T15:54:46.695Z,78.80
2018-02-08T15:57:14.976Z,78.30
2018-02-08T15:59:43.273Z,78.50
2018-02-08T16:02:10.787Z,79.00
2018-02-08T16:04:38.332Z,78.40
2018-02-08T16:07:05.833Z,78.50
2018-02-08T16:09:33.331Z,79.00
2018-02-08T16:12:00.847Z,78.30
2018-02-08T16:14:28.362Z,78.40
2018-02-08T16:16:55.876Z,78.70
2018-02-08T16:19:23.423Z,79.00
2018-02-08T16:21:50.929Z,79.00
2018-02-08T16:24:18.446Z,79.10
2018-02-08T16:26:45.975Z,79.30
2018-02-08T16:29:13.483Z,79.40
2018-02-08T16:31:40.995Z,79.70
2018-02-08T16:34:08.511Z,79.30
2018-02-08T16:36:36.015Z,79.30
2018-02-08T16:39:03.527Z,79.70
2018-02-08T16:41:31.093Z,79.70
2018-02-08T16:43:58.612Z,79.90
2018-02-08T16:46:26.896Z,79.90
2018-02-08T16:48:54.409Z,79.80
2018-02-08T16:51:21.979Z,79.90
2018-02-08T16:53:49.439Z,80.10
2018-02-08T16:56:16.947Z,80.20
2018-02-08T16:58:44.465Z,80.40
2018-02-08T17:01:11.975Z,81.00
2018-02-08T17:03:39.498Z,80.50
2018-02-08T17:06:07.787Z,80.50
2018-02-08T17:08:35.294Z,80.50
2018-02-08T17:11:02.813Z,80.60
2018-02-08T17:13:30.317Z,81.00
2018-02-08T17:15:57.814Z,81.10
2018-02-08T17:18:25.321Z,80.90
2018-02-08T17:20:52.823Z,80.80
2018-02-08T17:23:21.111Z,80.90
2018-02-08T17:25:48.629Z,80.80
2018-02-08T17:28:16.127Z,81.40
2018-02-08T17:30:43.627Z,81.10
2018-02-08T17:33:11.257Z,81.50
2018-02-08T17:35:38.808Z,81.40
2018-02-08T17:38:06.351Z,80.90
2018-02-08T17:40:33.879Z,81.10
2018-02-08T17:43:01.403Z,80.70
2018-02-08T17:45:28.925Z,80.90
2018-02-08T17:47:56.449Z,80.60
2018-02-08T17:50:23.971Z,80.60
2018-02-08T17:52:51.523Z,80.60
2018-02-08T17:55:19.064Z,80.50
2018-02-08T17:57:47.347Z,80.80
2018-02-08T18:00:14.866Z,80.70
2018-02-08T18:02:42.405Z,80.30
2018-02-08T18:05:09.923Z,80.30
2018-02-08T18:07:38.209Z,80.50
2018-02-08T18:10:05.739Z,80.40
2018-02-08T18:12:33.251Z,80.30
2018-02-08T18:15:00.763Z,80.20
2018-02-08T18:17:29.057Z,80.60
2018-02-08T18:19:56.557Z,80.50
2018-02-08T18:22:24.075Z,80.70
2018-02-08T18:24:51.602Z,80.80
2018-02-08T18:27:19.115Z,81.40
2018-02-08T18:29:46.638Z,81.20
2018-02-08T18:32:14.212Z,81.10
2018-02-08T18:34:41.735Z,81.30
2018-02-08T18:37:09.250Z,81.40
2018-02-08T18:39:36.785Z,81.30
2018-02-08T18:42:04.355Z,81.30
2018-02-08T18:44:31.869Z,81.60
2018-02-08T18:46:59.391Z,81.30
2018-02-08T18:49:26.913Z,81.20
2018-02-08T18:51:55.260Z,81.70
2018-02-08T18:54:22.798Z,81.70
2018-02-08T18:56:50.317Z,81.60
2018-02-08T18:59:17.837Z,81.50
2018-02-08T19:01:45.358Z,81.60
2018-02-08T19:04:12.875Z,81.60
2018-02-08T19:06:40.404Z,82.50
2018-02-08T19:09:08.009Z,81.90
2018-02-08T19:11:35.532Z,81.90
2018-02-08T19:14:03.091Z,81.60
2018-02-08T19:16:30.621Z,81.50
2018-02-08T19:18:58.139Z,81.90
2018-02-08T19:21:26.403Z,81.60
2018-02-08T19:23:53.947Z,81.50
2018-02-08T19:26:21.475Z,81.40
2018-02-08T19:28:48.981Z,81.60
2018-02-08T19:31:17.294Z,81.40
2018-02-08T19:33:44.816Z,81.40
2018-02-08T19:36:12.340Z,81.40
2018-02-08T19:38:39.868Z,80.90
2018-02-08T19:41:07.401Z,80.80
2018-02-08T19:43:34.937Z,80.70
2018-02-08T19:46:02.469Z,80.60
2018-02-08T19:48:29.987Z,80.20
2018-02-08T19:50:57.539Z,80.00
2018-02-08T19:53:25.093Z,80.10
2018-02-08T19:55:52.629Z,80.20
2018-02-08T19:58:20.155Z,79.60
2018-02-08T20:00:47.691Z,79.90
2018-02-08T20:03:15.207Z,79.80
2018-02-08T20:05:42.709Z,79.40
2018-02-08T20:08:11.003Z,79.60
2018-02-08T20:10:38.513Z,79.50
2018-02-08T20:13:06.027Z,79.40
2018-02-08T20:15:36.222Z,79.40
2018-02-08T20:18:03.761Z,79.00
2018-02-08T20:20:32.055Z,79.10
2018-02-08T20:22:59.590Z,79.00
2018-02-08T20:25:33.493Z,78.30
2018-02-08T20:28:01.019Z,78.30
2018-02-08T20:30:28.559Z,78.10
2018-02-08T20:32:56.105Z,78.30
2018-02-08T20:35:23.625Z,78.40
2018-02-08T20:37:51.138Z,77.50
2018-02-08T20:40:21.146Z,77.40
2018-02-08T20:42:54.393Z,77.30
2018-02-08T20:45:21.909Z,77.60
2018-02-08T20:47:49.449Z,77.70
2018-02-08T20:50:17.021Z,77.60
2018-02-08T20:52:44.538Z,77.60
2018-02-08T20:55:12.046Z,77.70
2018-02-08T20:57:39.579Z,77.70
2018-02-08T21:00:07.117Z,77.60
2018-02-08T21:02:34.635Z,77.50
2018-02-08T21:05:02.159Z,77.60
2018-02-08T21:07:29.671Z,77.80
2018-02-08T21:09:57.177Z,77.40
2018-02-08T21:12:24.715Z,77.70
2018-02-08T21:14:52.990Z,77.30
2018-02-08T21:17:21.285Z,77.90
2018-02-08T21:19:49.557Z,77.20
2018-02-08T21:22:17.079Z,77.00
2018-02-08T21:24:44.601Z,77.40
2018-02-08T21:27:12.115Z,77.60
2018-02-08T21:29:40.442Z,77.40
2018-02-08T21:32:07.943Z,77.30
2018-02-08T21:34:35.476Z,77.50
2018-02-08T21:37:02.991Z,77.60
2018-02-08T21:39:30.533Z,77.50
2018-02-08T21:41:58.065Z,77.60
2018-02-08T21:44:25.583Z,77.50
2018-02-08T21:46:53.102Z,78.10
2018-02-08T21:49:20.616Z,77.70
2018-02-08T21:51:48.144Z,78.10
2018-02-08T21:54:15.656Z,77.70
2018-02-08T21:56:43.199Z,77.70
2018-02-08T21:59:10.709Z,77.50
2018-02-08T22:01:38.987Z,77.50
2018-02-08T22:04:07.283Z,77.60
2018-02-08T22:06:34.797Z,77.60
2018-02-08T22:09:02.301Z,77.50
2018-02-08T22:11:29.841Z,77.10
2018-02-08T22:13:58.118Z,77.00
2018-02-08T22:16:26.387Z,77.30
2018-02-08T22:18:54.699Z,77.10
2018-02-08T22:21:22.969Z,77.00
2018-02-08T22:23:50.476Z,77.00
2018-02-08T22:26:18.009Z,77.10
2018-02-08T22:28:45.525Z,76.90
2018-02-08T22:31:13.815Z,77.20
2018-02-08T22:33:41.337Z,77.10
2018-02-08T22:36:08.860Z,77.70
2018-02-08T22:38:36.387Z,77.10
2018-02-08T22:41:03.923Z,77.20
2018-02-08T22:43:32.187Z,76.40
2018-02-08T22:45:59.693Z,76.30
2018-02-08T22:48:27.211Z,76.30
2018-02-08T22:50:55.481Z,76.70
2018-02-08T22:53:22.979Z,76.40
2018-02-08T22:55:50.515Z,76.60
2018-02-08T22:58:18.019Z,76.10
2018-02-08T23:00:45.520Z,76.30
2018-02-08T23:03:13.030Z,76.30
2018-02-08T23:05:40.547Z,76.30
2018-02-08T23:08:08.079Z,76.60
2018-02-08T23:10:35.604Z,77.00
2018-02-08T23:13:03.124Z,76.90
2018-02-08T23:15:31.397Z,77.20
2018-02-08T23:17:58.909Z,77.10
2018-02-08T23:20:26.420Z,77.10
2018-02-08T23:22:54.685Z,77.60
2018-02-08T23:25:23.030Z,77.20
2018-02-08T23:27:50.501Z,77.00
2018-02-08T23:30:18.005Z,77.00
2018-02-08T23:32:45.526Z,76.90
2018-02-08T23:35:13.029Z,76.70
2018-02-08T23:37:40.526Z,77.00
2018-02-08T23:40:08.081Z,76.90
2018-02-08T23:42:35.590Z,77.10
2018-02-08T23:45:03.855Z,77.20
2018-02-08T23:47:32.160Z,77.20
2018-02-08T23:49:59.659Z,77.00
2018-02-08T23:52:27.167Z,77.40
2018-02-08T23:54:54.681Z,77.20
2018-02-08T23:57:22.205Z,77.10
2018-02-08T23:59:50.514Z,77.20
